Time;durP1;ratioP1;P1;durP2;ratioP2;P2;SDS_P1;SDS_P2;PMS_P1;PMS_P2;Temp;Humidity;BMP_temperature;BMP_pressure;BME280_temperature;BME280_humidity;BME280_pressure;Samples;Min_cycle;Max_cycle;Signal;HPM_P1;HPM_P2
2022/09/10 00:01:37;;;;;;;13.40;11.18;;;15.60;99.90;;;;;;5135556;27;20090;-59
2022/09/10 00:04:09;;;;;;;15.70;11.40;;;15.60;99.90;;;;;;5135519;27;20047;-59
2022/09/10 00:06:37;;;;;;;13.07;11.52;;;15.50;99.90;;;;;;5135508;27;20051;-59
2022/09/10 00:09:03;;;;;;;14.32;11.18;;;15.60;99.90;;;;;;5135625;27;20047;-59
2022/09/10 00:11:30;;;;;;;14.32;11.73;;;15.60;99.90;;;;;;5135318;27;20386;-60
2022/09/10 00:14:01;;;;;;;15.85;11.57;;;15.60;99.90;;;;;;5135057;27;20059;-60
2022/09/10 00:16:27;;;;;;;17.38;11.82;;;15.60;99.90;;;;;;5134776;27;20039;-59
2022/09/10 00:18:53;;;;;;;15.60;11.07;;;15.60;99.90;;;;;;5135428;27;20043;-60
2022/09/10 00:21:20;;;;;;;14.27;11.40;;;15.70;99.90;;;;;;5135020;27;20092;-59
2022/09/10 00:23:46;;;;;;;13.57;11.10;;;15.70;99.90;;;;;;5135400;27;20058;-59
2022/09/10 00:26:20;;;;;;;13.00;11.10;;;15.70;99.90;;;;;;5116720;27;20043;-62
2022/09/10 00:28:46;;;;;;;;;;;15.70;99.90;;;;;;5135631;27;20043;-60
2022/09/10 00:31:12;;;;;;;;;;;15.70;99.90;;;;;;5117044;27;20356;-60
2022/09/10 00:33:38;;;;;;;;;;;15.70;99.90;;;;;;5135260;27;19924;-59
2022/09/10 00:36:12;;;;;;;;;;;15.70;99.90;;;;;;5135404;27;19923;-59
2022/09/10 00:38:38;;;;;;;;;;;15.70;99.90;;;;;;5100068;27;19999;-59
2022/09/10 00:41:06;;;;;;;;;;;15.70;99.90;;;;;;5135365;27;20389;-59
2022/09/10 00:43:52;;;;;;;18.08;12.48;;;15.70;99.90;;;;;;5116556;27;20307;-60
2022/09/10 00:46:33;;;;;;;16.63;12.88;;;15.70;99.90;;;;;;5116384;27;20047;-60
2022/09/10 00:49:04;;;;;;;14.80;12.60;;;15.70;99.90;;;;;;5116715;27;20103;-59
2022/09/10 00:51:34;;;;;;;15.10;11.48;;;15.70;99.90;;;;;;5134487;27;20043;-59
2022/09/10 00:54:00;;;;;;;15.70;12.05;;;15.70;99.90;;;;;;5116469;27;20039;-60
2022/09/10 00:56:27;;;;;;;;;;;15.70;99.90;;;;;;5116383;27;20369;-61
2022/09/10 00:58:52;;;;;;;;;;;15.70;99.90;;;;;;5135123;27;19964;-61
2022/09/10 01:01:18;;;;;;;;;;;15.70;99.90;;;;;;5134603;27;20297;-61
2022/09/10 01:03:44;;;;;;;;;;;15.70;99.90;;;;;;5135373;27;19926;-61
2022/09/10 01:06:10;;;;;;;;;;;15.70;99.90;;;;;;5134925;27;19949;-61
2022/09/10 01:08:36;;;;;;;;;;;15.70;99.90;;;;;;5134560;27;20403;-61
2022/09/10 01:11:11;;;;;;;;;;;15.70;99.90;;;;;;5134867;27;20375;-61
2022/09/10 01:13:59;;;;;;;;;;;15.80;99.90;;;;;;5134510;27;19919;-61
2022/09/10 01:16:47;;;;;;;;;;;15.70;99.90;;;;;;5097961;27;19959;-61
2022/09/10 01:19:33;;;;;;;;;;;15.80;99.90;;;;;;5115913;27;19919;-61
2022/09/10 01:22:18;;;;;;;;;;;15.70;99.90;;;;;;5116493;27;19926;-62
2022/09/10 01:24:49;;;;;;;;;;;15.70;99.90;;;;;;5133681;27;20276;-61
2022/09/10 01:27:27;;;;;;;;;;;15.70;99.90;;;;;;5116518;27;20449;-61
2022/09/10 01:29:58;;;;;;;;;;;15.80;99.90;;;;;;5134523;27;19970;-61
2022/09/10 01:32:36;;;;;;;;;;;15.80;99.90;;;;;;5115558;27;19925;-63
2022/09/10 01:35:10;;;;;;;;;;;15.80;99.90;;;;;;5134311;27;20002;-61
2022/09/10 01:37:37;;;;;;;;;;;15.70;99.90;;;;;;5134038;27;20319;-61
2022/09/10 01:40:03;;;;;;;;;;;15.70;99.90;;;;;;5116286;27;20356;-61
2022/09/10 01:42:28;;;;;;;;;;;15.70;99.90;;;;;;5098847;27;19919;-61
2022/09/10 01:44:56;;;;;;;;;;;15.70;99.90;;;;;;5115843;27;20002;-61
2022/09/10 01:47:31;;;;;;;;;;;15.60;99.90;;;;;;5133594;27;19923;-61
2022/09/10 01:50:15;;;;;;;;;;;15.70;99.90;;;;;;5115630;27;19919;-62
2022/09/10 01:52:47;;;;;;;;;;;15.70;99.90;;;;;;5133422;27;19919;-63
2022/09/10 01:55:16;;;;;;;;;;;15.70;99.90;;;;;;5115479;27;19970;-63
2022/09/10 01:58:00;;;;;;;;;;;15.70;99.90;;;;;;5133524;27;19919;-62
2022/09/10 02:00:26;;;;;;;;;;;15.70;99.90;;;;;;5133612;27;19972;-66
2022/09/10 02:03:04;;;;;;;;;;;15.70;99.90;;;;;;5133658;27;19919;-63
2022/09/10 02:05:34;;;;;;;;;;;15.70;99.90;;;;;;5133291;27;20402;-62
2022/09/10 02:08:02;;;;;;;;;;;15.70;99.90;;;;;;5133918;27;19996;-63
2022/09/10 02:10:28;;;;;;;;;;;15.70;99.90;;;;;;5133103;27;20392;-66
2022/09/10 02:12:54;;;;;;;;;;;15.70;99.90;;;;;;5115270;27;19919;-63
2022/09/10 02:15:21;;;;;;;;;;;15.70;99.90;;;;;;5133467;27;19967;-63
2022/09/10 02:17:48;;;;;;;;;;;15.70;99.90;;;;;;5115243;27;19968;-62
2022/09/10 02:20:14;;;;;;;;;;;15.70;99.90;;;;;;5133541;27;19919;-62
2022/09/10 02:22:43;;;;;;;;;;;15.70;99.90;;;;;;5132905;27;19930;-63
2022/09/10 02:25:08;;;;;;;;;;;15.60;99.90;;;;;;5133441;27;20288;-63
2022/09/10 02:27:34;;;;;;;;;;;15.70;99.90;;;;;;5115076;27;19926;-63
2022/09/10 02:30:00;;;;;;;;;;;15.70;99.90;;;;;;5132413;27;19933;-63
2022/09/10 02:32:25;;;;;;;;;;;15.60;99.90;;;;;;5133359;27;19919;-63
2022/09/10 02:34:51;;;;;;;;;;;15.60;99.90;;;;;;5132921;27;20001;-64
2022/09/10 02:37:17;;;;;;;;;;;15.60;99.90;;;;;;5115286;28;19919;-63
2022/09/10 02:39:44;;;;;;;;;;;15.60;99.90;;;;;;5114810;27;19923;-63
2022/09/10 02:42:11;;;;;;;;;;;15.60;99.90;;;;;;5133315;27;19923;-63
2022/09/10 02:44:37;;;;;;;;;;;15.60;99.90;;;;;;5132929;27;19944;-63
2022/09/10 02:47:02;;;;;;;;;;;15.60;99.90;;;;;;5133536;27;19922;-62
2022/09/10 02:49:28;;;;;;;;;;;15.60;99.90;;;;;;5114636;28;19919;-63
2022/09/10 02:51:53;;;;;;;;;;;15.60;99.90;;;;;;5114401;28;19915;-63
2022/09/10 02:54:19;;;;;;;;;;;15.60;99.90;;;;;;5133211;28;19980;-63
2022/09/10 02:56:47;;;;;;;;;;;15.60;99.90;;;;;;5132738;28;19926;-62
2022/09/10 02:59:13;;;;;;;;;;;15.60;99.90;;;;;;5133210;28;19926;-63
2022/09/10 03:01:38;;;;;;;;;;;15.60;99.90;;;;;;5114371;28;19920;-63
2022/09/10 03:04:04;;;;;;;;;;;15.60;99.90;;;;;;5114935;28;19963;-62
2022/09/10 03:06:30;;;;;;;;;;;15.60;99.90;;;;;;5133000;28;19924;-63
2022/09/10 03:08:56;;;;;;;;;;;15.60;99.90;;;;;;5132672;28;19921;-64
2022/09/10 03:11:22;;;;;;;;;;;15.60;99.90;;;;;;5132991;28;19923;-64
2022/09/10 03:13:49;;;;;;;;;;;15.60;99.90;;;;;;5132362;28;20388;-63
2022/09/10 03:16:15;;;;;;;;;;;15.60;99.90;;;;;;5132957;28;19945;-64
2022/09/10 03:18:41;;;;;;;;;;;15.50;99.90;;;;;;5132699;28;19919;-63
2022/09/10 03:21:17;;;;;;;;;;;15.50;99.90;;;;;;5132946;28;19944;-63
2022/09/10 03:23:46;;;;;;;;;;;15.50;99.90;;;;;;5097517;28;19961;-64
2022/09/10 03:26:13;;;;;;;;;;;15.50;99.90;;;;;;5132915;28;19919;-63
2022/09/10 03:28:39;;;;;;;;;;;15.60;99.90;;;;;;5132676;28;19919;-66
2022/09/10 03:31:05;;;;;;;;;;;15.50;99.90;;;;;;5132792;28;19940;-64
2022/09/10 03:33:31;;;;;;;;;;;15.50;99.90;;;;;;5132565;28;19919;-63
2022/09/10 03:35:57;;;;;;;;;;;15.50;99.90;;;;;;5132507;28;20067;-64
2022/09/10 03:38:22;;;;;;;;;;;15.50;99.90;;;;;;5132832;28;19944;-63
2022/09/10 03:40:49;;;;;;;;;;;15.50;99.90;;;;;;5133259;27;20322;-63
2022/09/10 03:43:14;;;;;;;;;;;15.50;99.90;;;;;;5118187;27;19919;-65
2022/09/10 03:45:40;;;;;;;;;;;15.50;99.90;;;;;;5118201;27;20324;-66
2022/09/10 03:48:06;;;;;;;;;;;15.60;99.90;;;;;;5117969;27;19919;-64
2022/09/10 03:50:31;;;;;;;;;;;15.60;99.90;;;;;;5118574;27;20322;-63
2022/09/10 03:52:57;;;;;;;;;;;15.60;99.90;;;;;;5136196;27;20326;-64
2022/09/10 03:55:23;;;;;;;;;;;15.60;99.90;;;;;;5136159;27;20000;-63
2022/09/10 03:57:48;;;;;;;;;;;15.60;99.90;;;;;;5135412;27;19945;-63
2022/09/10 04:00:14;;;;;;;;;;;15.60;99.90;;;;;;5136332;27;19919;-63
2022/09/10 04:02:40;;;;;;;;;;;15.60;99.90;;;;;;5136385;27;19927;-63
2022/09/10 04:05:06;;;;;;;;;;;15.50;99.90;;;;;;5135736;27;19919;-63
2022/09/10 04:07:32;;;;;;;;;;;15.60;99.90;;;;;;5136403;27;19919;-63
2022/09/10 04:09:58;;;;;;;;;;;15.50;99.90;;;;;;5135800;27;19942;-63
2022/09/10 04:12:25;;;;;;;;;;;15.60;99.90;;;;;;5100871;27;19920;-63
2022/09/10 04:14:51;;;;;;;;;;;15.60;99.90;;;;;;5134838;27;19923;-63
2022/09/10 04:17:17;;;;;;;;;;;15.60;99.90;;;;;;5117812;27;19968;-64
2022/09/10 04:19:42;;;;;;;;;;;15.60;99.90;;;;;;5117667;27;19920;-63
2022/09/10 04:22:08;;;;;;;;;;;15.60;99.90;;;;;;5117160;27;19939;-63
2022/09/10 04:24:33;;;;;;;;;;;15.60;99.90;;;;;;5135884;27;19920;-63
2022/09/10 04:27:00;;;;;;;;;;;15.60;99.90;;;;;;5134807;27;20431;-64
2022/09/10 04:29:26;;;;;;;;;;;15.50;99.90;;;;;;5135473;27;19919;-64
2022/09/10 04:31:51;;;;;;;;;;;15.50;99.90;;;;;;5099912;27;19926;-63
2022/09/10 04:34:17;;;;;;;;;;;15.60;99.90;;;;;;5117206;27;19964;-64
2022/09/10 04:36:42;;;;;;;;;;;15.60;99.90;;;;;;5135146;27;20384;-63
2022/09/10 04:39:08;;;;;;;;;;;15.60;99.90;;;;;;5117012;27;20504;-63
2022/09/10 04:41:33;;;;;;;;;;;15.60;99.90;;;;;;5135340;27;19919;-63
2022/09/10 04:43:59;;;;;;;;;;;15.60;99.90;;;;;;5135120;27;20294;-63
2022/09/10 04:46:25;;;;;;;;;;;15.60;99.90;;;;;;5134960;27;19926;-63
2022/09/10 04:48:51;;;;;;;;;;;15.60;99.90;;;;;;5083036;27;20384;-66
2022/09/10 04:51:17;;;;;;;;;;;15.60;99.90;;;;;;5135154;27;20006;-63
2022/09/10 04:53:43;;;;;;;;;;;15.60;99.90;;;;;;5134034;27;19919;-63
2022/09/10 04:56:08;;;;;;;;;;;15.60;99.90;;;;;;5116106;27;19976;-63
2022/09/10 04:58:34;;;;;;;;;;;15.60;99.90;;;;;;5134772;27;20360;-64
2022/09/10 05:01:00;;;;;;;;;;;15.60;99.90;;;;;;5134590;27;19920;-63
2022/09/10 05:03:26;;;;;;;;;;;15.60;99.90;;;;;;5116583;27;20395;-63
2022/09/10 05:05:51;;;;;;;;;;;15.60;99.90;;;;;;5134792;27;19926;-64
2022/09/10 05:08:17;;;;;;;;;;;15.50;99.90;;;;;;5134370;27;19920;-64
2022/09/10 05:10:44;;;;;;;;;;;15.60;99.90;;;;;;5099609;27;20404;-64
2022/09/10 05:13:10;;;;;;;;;;;15.50;99.90;;;;;;5133971;27;19920;-63
2022/09/10 05:15:38;;;;;;;;;;;15.50;99.90;;;;;;5134669;27;20010;-64
2022/09/10 05:18:04;;;;;;;;;;;15.60;99.90;;;;;;5134080;27;19988;-63
2022/09/10 05:20:30;;;;;;;;;;;15.60;99.90;;;;;;5116303;27;19927;-63
2022/09/10 05:22:56;;;;;;;;;;;15.50;99.90;;;;;;5115775;27;19937;-67
2022/09/10 05:25:23;;;;;;;;;;;15.50;99.90;;;;;;5134600;27;20361;-63
2022/09/10 05:27:50;;;;;;;;;;;15.60;99.90;;;;;;5134030;27;19928;-63
2022/09/10 05:30:16;;;;;;;;;;;15.60;99.90;;;;;;5133907;27;20289;-64
2022/09/10 05:32:41;;;;;;;;;;;15.60;99.90;;;;;;5134128;27;20276;-64
2022/09/10 05:35:07;;;;;;;;;;;15.60;99.90;;;;;;5133581;27;20014;-64
2022/09/10 05:37:33;;;;;;;;;;;15.60;99.90;;;;;;5134191;27;19926;-63
2022/09/10 05:39:59;;;;;;;;;;;15.70;99.90;;;;;;5098383;27;19923;-66
2022/09/10 05:42:25;;;;;;;;;;;15.60;99.90;;;;;;5134058;27;19970;-64
2022/09/10 05:44:50;;;;;;;;;;;15.60;99.90;;;;;;5098984;27;19926;-63
2022/09/10 05:47:16;;;;;;;;;;;15.60;99.90;;;;;;5115564;27;19927;-63
2022/09/10 05:49:41;;;;;;;;;;;15.60;99.90;;;;;;5115364;27;20444;-63
2022/09/10 05:52:08;;;;;;;;;;;15.70;99.90;;;;;;5133404;27;20313;-63
2022/09/10 05:54:34;;;;;;;;;;;15.60;99.90;;;;;;5098517;27;20006;-63
2022/09/10 05:57:00;;;;;;;;;;;15.60;99.90;;;;;;5098128;27;20018;-65
2022/09/10 05:59:26;;;;;;;;;;;15.60;99.90;;;;;;5115087;27;20343;-63
2022/09/10 06:01:51;;;;;;;;;;;15.60;99.90;;;;;;5133480;27;20043;-63
2022/09/10 06:04:20;;;;;;;;;;;15.60;99.90;;;;;;5132987;27;19971;-64
2022/09/10 06:06:46;;;;;;;;;;;15.60;99.90;;;;;;5133583;27;19920;-63
2022/09/10 06:09:12;;;;;;;;;;;15.60;99.90;;;;;;5132743;27;19984;-64
2022/09/10 06:11:38;;;;;;;;;;;15.70;99.90;;;;;;5115208;27;19923;-64
2022/09/10 06:14:04;;;;;;;;;;;15.70;99.90;;;;;;5114598;27;20421;-66
2022/09/10 06:16:30;;;;;;;;;;;15.70;99.90;;;;;;5133255;27;19927;-64
2022/09/10 06:18:56;;;;;;;;;;;15.70;99.90;;;;;;5115349;27;19919;-63
2022/09/10 06:21:23;;;;;;;;;;;15.70;99.90;;;;;;5132777;27;19927;-63
2022/09/10 06:23:51;;;;;;;;;;;15.70;99.90;;;;;;5115319;27;19931;-63
2022/09/10 06:26:17;;;;;;;;;;;15.80;99.90;;;;;;5133103;27;19969;-63
2022/09/10 06:28:43;;;;;;;;;;;15.80;99.90;;;;;;5133235;27;20341;-63
2022/09/10 06:31:13;;;;;;;;;;;15.80;99.90;;;;;;5114182;27;19980;-64
2022/09/10 06:33:38;;;;;;;;;;;15.80;99.90;;;;;;5133011;27;19919;-64
2022/09/10 06:36:04;;;;;;;;;;;15.90;99.90;;;;;;5132684;27;19919;-63
2022/09/10 06:38:32;;;;;;;;;;;15.90;99.90;;;;;;5132972;27;20276;-63
2022/09/10 06:40:59;;;;;;;;;;;15.90;99.90;;;;;;5132294;27;19919;-62
2022/09/10 06:43:25;;;;;;;;;;;15.90;99.90;;;;;;5132604;27;20071;-65
2022/09/10 06:45:52;;;;;;;;;;;15.90;99.90;;;;;;5115086;27;20348;-64
2022/09/10 06:48:21;;;;;;;;;;;16.00;99.90;;;;;;5132559;27;19919;-63
2022/09/10 06:50:54;;;;;;;;;;;16.00;99.90;;;;;;5132888;27;20018;-63
2022/09/10 06:53:20;;;;;;;;;;;16.00;99.90;;;;;;5132490;28;20285;-63
2022/09/10 06:55:47;;;;;;;;;;;16.00;99.90;;;;;;5133012;28;19927;-63
2022/09/10 06:58:13;;;;;;;;;;;16.00;99.90;;;;;;5132284;28;19926;-64
2022/09/10 07:00:38;;;;;;;;;;;16.10;99.90;;;;;;5132481;28;19920;-63
2022/09/10 07:03:04;;;;;;;;;;;16.10;99.90;;;;;;5132856;28;19930;-63
2022/09/10 07:05:32;;;;;;;;;;;16.10;99.90;;;;;;5097618;28;20512;-63
2022/09/10 07:07:58;;;;;;;;;;;16.10;99.90;;;;;;5114308;28;19919;-63
2022/09/10 07:10:24;;;;;;;;;;;16.10;99.90;;;;;;5132496;28;19972;-63
2022/09/10 07:12:49;;;;;;;;;;;16.10;99.90;;;;;;5132473;28;19927;-63
2022/09/10 07:15:15;;;;;;;;;;;16.10;99.90;;;;;;5131981;27;20305;-64
2022/09/10 07:17:40;;;;;;;;;;;16.10;99.90;;;;;;5137006;27;19923;-63
2022/09/10 07:20:07;;;;;;;;;;;16.10;99.90;;;;;;5118901;27;19920;-63
2022/09/10 07:22:32;;;;;;;;;;;16.10;99.90;;;;;;5136503;27;20122;-63
2022/09/10 07:24:59;;;;;;;;;;;16.10;99.90;;;;;;5136652;27;19926;-63
2022/09/10 07:27:24;;;;;;;;;;;16.20;99.90;;;;;;5136629;27;19919;-64
2022/09/10 07:29:50;;;;;;;;;;;16.20;99.90;;;;;;5137000;27;20064;-63
2022/09/10 07:32:17;;;;;;;;;;;16.20;99.90;;;;;;5118135;27;19926;-66
2022/09/10 07:34:43;;;;;;;;;;;16.30;99.90;;;;;;5136460;27;20023;-63
2022/09/10 07:37:08;;;;;;;;;;;16.30;99.90;;;;;;5136728;27;19973;-62
2022/09/10 07:39:34;;;;;;;;;;;16.30;99.90;;;;;;5101025;27;20555;-62
2022/09/10 07:42:00;;;;;;;;;;;16.40;99.90;;;;;;5136390;27;19931;-62
2022/09/10 07:44:25;;;;;;;;;;;16.40;99.90;;;;;;5135738;27;19972;-62
2022/09/10 07:46:51;;;;;;;;;;;16.40;99.90;;;;;;5101116;27;20360;-62
2022/09/10 07:49:17;;;;;;;;;;;16.40;99.90;;;;;;5135383;27;20372;-65
2022/09/10 07:51:42;;;;;;;;;;;16.40;99.90;;;;;;5135934;27;19964;-62
2022/09/10 07:54:08;;;;;;;;;;;16.40;99.90;;;;;;5135904;27;19919;-62
2022/09/10 07:56:34;;;;;;;;;;;16.40;99.90;;;;;;5135776;27;19919;-62
2022/09/10 07:59:01;;;;;;;;;;;16.40;99.90;;;;;;5136193;27;19992;-63
2022/09/10 08:01:27;;;;;;;;;;;16.40;99.90;;;;;;5135524;27;19919;-63
2022/09/10 08:03:57;;;;;;;;;;;16.40;99.90;;;;;;5136022;27;19920;-63
2022/09/10 08:06:23;;;;;;;;;;;16.40;99.90;;;;;;5135589;27;19926;-63
2022/09/10 08:08:49;;;;;;;;;;;16.40;99.90;;;;;;5135507;27;19989;-63
2022/09/10 08:11:16;;;;;;;;;;;16.40;99.90;;;;;;5100771;27;20021;-63
2022/09/10 08:13:46;;;;;;;;;;;16.40;99.90;;;;;;5135115;27;20029;-63
2022/09/10 08:16:18;;;;;;;;;;;16.40;99.90;;;;;;5135147;27;19926;-63
2022/09/10 08:18:46;;;;;;;;;;;16.50;99.90;;;;;;5135648;27;19920;-63
2022/09/10 08:21:12;;;;;;;;;;;16.50;99.90;;;;;;5117652;27;19919;-63
2022/09/10 08:23:42;;;;;;;;;;;16.50;99.90;;;;;;5116857;27;19945;-63
2022/09/10 08:26:08;;;;;;;;;;;16.50;99.90;;;;;;5135650;27;19919;-63
2022/09/10 08:28:36;;;;;;;;;;;16.60;99.90;;;;;;5133792;27;20010;-63
2022/09/10 08:31:07;;;;;;;;;;;16.60;99.90;;;;;;5135481;27;20337;-61
2022/09/10 08:33:35;;;;;;;;;;;16.50;99.90;;;;;;5135141;27;19927;-63
2022/09/10 08:36:01;;;;;;;;;;;16.50;99.90;;;;;;5135272;27;19964;-62
2022/09/10 08:38:38;;;;;;;;;;;16.60;99.90;;;;;;5116442;27;20435;-63
2022/09/10 08:41:20;;;;;;;;;;;16.60;99.90;;;;;;5135510;27;19958;-62
2022/09/10 08:43:58;;;;;;;;;;;16.60;99.90;;;;;;5134489;27;20407;-63
2022/09/10 08:46:25;;;;;;;;;;;16.60;99.90;;;;;;5134866;27;19927;-65
2022/09/10 08:49:14;;;;;;;;;;;16.60;99.90;;;;;;5134285;27;19919;-62
2022/09/10 08:51:43;;;;;;;;;;;16.60;99.90;;;;;;5095412;27;19923;-63
2022/09/10 08:54:18;;;;;;;;;;;16.60;99.90;;;;;;5116418;27;20386;-62
2022/09/10 08:56:44;;;;;;;;;;;16.50;99.90;;;;;;5134233;27;19919;-63
2022/09/10 08:59:28;;;;;;;;;;;16.60;99.90;;;;;;5134671;27;19923;-62
2022/09/10 09:01:57;;;;;;;;;;;16.60;99.90;;;;;;5116174;27;20439;-63
2022/09/10 09:04:42;;;;;;;;;;;16.60;99.90;;;;;;5134833;27;19919;-64
2022/09/10 09:07:11;;;;;;;;;;;16.60;99.90;;;;;;5134505;27;19923;-63
2022/09/10 09:09:37;;;;;;;;;;;16.70;99.90;;;;;;5134070;27;19964;-63
2022/09/10 09:12:28;;;;;;;;;;;16.70;99.90;;;;;;5133923;27;19919;-63
2022/09/10 09:15:02;;;;;;;;;;;16.80;99.90;;;;;;5134287;27;19919;-63
2022/09/10 09:17:47;;;;;;;;;;;16.80;99.90;;;;;;5134620;27;19919;-63
2022/09/10 09:20:17;;;;;;;;;;;16.90;99.90;;;;;;5134484;27;19941;-62
2022/09/10 09:22:45;;;;;;;;;;;16.90;99.90;;;;;;5134155;27;19920;-62
2022/09/10 09:25:17;;;;;;;;;;;16.90;99.90;;;;;;5134495;27;19919;-63
2022/09/10 09:27:43;;;;;;;;;;;16.90;99.90;;;;;;5115762;27;19983;-63
2022/09/10 09:30:15;;;;;;;;;;;16.90;99.90;;;;;;5116191;27;20328;-65
2022/09/10 09:32:42;;;;;;;;;;;16.90;99.90;;;;;;5133940;27;20041;-63
2022/09/10 09:35:18;;;;;;;;;;;16.90;99.90;;;;;;5115977;27;19919;-63
2022/09/10 09:37:47;;;;;;;;;;;16.90;99.90;;;;;;5133811;27;19970;-63
2022/09/10 09:40:13;;;;;;;;;;;17.00;99.90;;;;;;5133651;27;19924;-63
2022/09/10 09:42:52;;;;;;;;;;;17.00;99.90;;;;;;5133488;27;20431;-63
2022/09/10 09:45:18;;;;;;;;;;;17.00;99.90;;;;;;5134115;27;19919;-63
2022/09/10 09:47:45;;;;;;;;;;;17.00;99.90;;;;;;5133519;27;19942;-63
2022/09/10 09:50:10;;;;;;;;;;;17.00;99.90;;;;;;5133914;27;19926;-63
2022/09/10 09:52:37;;;;;;;;;;;17.10;99.90;;;;;;5115454;27;20284;-65
2022/09/10 09:55:05;;;;;;;;;;;17.10;99.90;;;;;;5133830;27;19963;-63
2022/09/10 09:57:31;;;;;;;;;;;17.10;99.90;;;;;;5133906;27;19926;-63
2022/09/10 09:59:58;;;;;;;;;;;17.10;99.90;;;;;;5133380;27;20521;-63
2022/09/10 10:02:24;;;;;;;;;;;17.10;99.90;;;;;;5133788;27;20070;-63
2022/09/10 10:05:02;;;;;;;;;;;17.20;99.90;;;;;;5133275;27;19921;-62
2022/09/10 10:07:31;;;;;;;;;;;17.20;99.90;;;;;;5133723;27;19939;-62
2022/09/10 10:10:01;;;;;;;;;;;17.20;99.90;;;;;;5133184;27;19919;-63
2022/09/10 10:12:30;;;;;;;;;;;17.30;99.90;;;;;;5115156;27;19919;-62
2022/09/10 10:14:56;;;;;;;;;;;17.30;99.90;;;;;;5132555;27;19923;-62
2022/09/10 10:17:38;;;;;;;;;;;17.40;99.90;;;;;;5133405;27;19926;-61
2022/09/10 10:20:07;;;;;;;;;;;17.50;99.90;;;;;;5132713;27;19984;-62
2022/09/10 10:22:34;;;;;;;;;;;17.60;99.90;;;;;;5115078;27;19919;-62
2022/09/10 10:25:00;;;;;;;;;;;17.60;99.90;;;;;;5133062;27;19930;-62
2022/09/10 10:27:31;;;;;;;;;;;17.70;99.90;;;;;;5133431;27;20034;-62
2022/09/10 10:30:06;;;;;;;;;;;17.70;99.90;;;;;;5132579;27;19972;-63
2022/09/10 10:32:43;;;;;;;;;;;17.80;99.90;;;;;;5133369;27;19919;-62
2022/09/10 10:35:12;;;;;;;;;;;17.80;99.90;;;;;;5132970;27;19952;-61
2022/09/10 10:37:58;;;;;;;;;;;17.90;99.90;;;;;;5132978;27;19919;-61
2022/09/10 10:40:29;;;;;;;;;;;17.90;99.90;;;;;;5133110;27;20280;-61
2022/09/10 10:43:10;;;;;;;;;;;17.90;99.90;;;;;;5132596;27;19926;-62
2022/09/10 10:45:39;;;;;;;;;;;17.90;99.90;;;;;;5132879;27;20363;-62
2022/09/10 10:48:37;;;;;;;;;;;17.90;99.90;;;;;;5132776;27;19926;-62
2022/09/10 10:51:10;;;;;;;;;;;18.00;99.90;;;;;;5086224;27;19985;-62
2022/09/10 10:53:54;;;;;;;;;;;18.00;99.90;;;;;;5114917;28;20006;-62
2022/09/10 10:56:31;;;;;;;;;;;18.00;99.90;;;;;;5132941;28;20041;-62
2022/09/10 10:59:13;;;;;;;;;;;18.10;99.90;;;;;;5132693;28;19926;-61
2022/09/10 11:01:41;;;;;;;;;;;18.10;99.90;;;;;;5133073;28;19919;-62
2022/09/10 11:04:17;;;;;;;;;;;18.10;99.90;;;;;;5132451;28;19919;-62
2022/09/10 11:06:46;;;;;;;;;;;18.00;99.90;;;;;;5132859;28;19965;-62
2022/09/10 11:09:50;;;;;;;;;;;18.10;99.90;;;;;;5132461;28;20018;-61
2022/09/10 11:12:23;;;;;;;;;;;18.10;99.90;;;;;;5049060;28;19976;-62
2022/09/10 11:14:57;;;;;;;;;;;18.20;99.90;;;;;;5048942;28;19972;-63
2022/09/10 11:17:29;;;;;;;;;;;18.30;99.90;;;;;;5087846;28;20013;-62
2022/09/10 11:20:02;;;;;;;;;;;18.30;99.90;;;;;;5132513;28;19926;-62
2022/09/10 11:22:30;;;;;;;;;;;18.40;99.90;;;;;;5114474;28;20368;-62
2022/09/10 11:25:01;;;;;;;;;;;18.40;99.90;;;;;;5113904;28;20368;-62
2022/09/10 11:27:28;;;;;;;;;;;18.40;99.90;;;;;;5114414;28;20002;-62
2022/09/10 11:30:02;;;;;;;;;;;18.50;99.90;;;;;;5131998;28;19919;-65
2022/09/10 11:32:31;;;;;;;;;;;18.50;99.90;;;;;;5132681;28;20345;-62
2022/09/10 11:35:14;;;;;;;;;;;18.60;99.90;;;;;;5130884;28;19926;-66
2022/09/10 11:38:03;;;;;;;;;;;18.60;99.90;;;;;;5108912;28;19919;-65
2022/09/10 11:40:51;;;;;;;;;;;18.70;99.90;;;;;;5105988;28;20368;-63
2022/09/10 11:43:42;;;;;;;;;;;18.80;99.90;;;;;;5132197;28;20457;-63
2022/09/10 11:46:17;;;;;;;;;;;18.70;99.90;;;;;;5097601;28;19919;-63
2022/09/10 11:49:02;;;;;;;;;;;18.90;99.90;;;;;;5112443;28;19920;-63
2022/09/10 11:51:29;;;;;;;;;;;18.90;99.90;;;;;;5132253;28;19926;-63
2022/09/10 11:53:55;;;;;;;;;;;19.00;99.90;;;;;;5109589;28;20484;-65
2022/09/10 11:56:44;;;;;;;;;;;19.10;99.90;;;;;;5131808;28;20023;-63
2022/09/10 11:59:13;;;;;;;;;;;19.10;99.90;;;;;;5103929;28;19930;-63
2022/09/10 12:01:45;;;;;;;;;;;19.20;99.90;;;;;;5114741;27;20139;-64
2022/09/10 12:04:17;;;;;;;;;;;19.30;99.90;;;;;;5135403;27;19919;-66
2022/09/10 12:06:55;;;;;;;;;;;19.40;99.90;;;;;;5136005;27;19927;-63
2022/09/10 12:09:33;;;;;;;;;;;19.60;99.90;;;;;;5135684;27;19923;-63
2022/09/10 12:12:12;;;;;;;;;;;19.70;99.90;;;;;;5135677;27;19927;-64
2022/09/10 12:14:39;;;;;;;;;;;19.90;99.90;;;;;;5135552;27;19972;-62
2022/09/10 12:17:15;;;;;;;;;;;20.00;99.90;;;;;;5135017;27;20340;-62
2022/09/10 12:19:48;;;;;;;;;;;20.20;99.90;;;;;;5117754;27;20019;-62
2022/09/10 12:22:23;;;;;;;;;;;20.30;99.90;;;;;;5135433;27;19926;-62
2022/09/10 12:24:53;;;;;;;;;;;20.50;99.90;;;;;;5135725;27;19919;-62
2022/09/10 12:27:19;;;;;;;;;;;20.50;99.90;;;;;;5117173;27;20125;-62
2022/09/10 12:29:45;;;;;;;;;;;20.50;99.90;;;;;;5135103;27;20352;-63
2022/09/10 12:32:24;;;;;;;;;;;20.50;99.90;;;;;;5135213;27;20305;-62
2022/09/10 12:35:10;;;;;;;;;;;20.50;99.90;;;;;;5117244;27;20006;-62
2022/09/10 12:37:36;;;;;;;;;;;20.60;99.90;;;;;;5117089;27;19927;-62
2022/09/10 12:40:37;;;;;;;;;;;20.50;99.90;;;;;;5135337;27;19927;-63
2022/09/10 12:43:22;;;;;;;;;;;20.70;99.90;;;;;;5051448;28;19927;-64
2022/09/10 12:46:00;;;;;;;;;;;20.80;99.90;;;;;;5093850;27;19926;-62
2022/09/10 12:48:28;;;;;;;;;;;20.90;99.90;;;;;;5134944;27;20269;-62
2022/09/10 12:50:59;;;;;;;;;;;20.90;99.90;;;;;;5117047;27;19923;-62
2022/09/10 12:53:32;;;;;;;;;;;21.00;99.90;;;;;;5116380;27;20006;-63
2022/09/10 12:55:58;;;;;;;;;;;20.90;99.90;;;;;;5116821;27;20006;-63
2022/09/10 12:58:37;;;;;;;;;;;20.80;99.90;;;;;;5115974;27;20364;-61
2022/09/10 13:01:07;;;;;;;;;;;20.70;99.90;;;;;;5116631;27;20022;-62
2022/09/10 13:03:32;;;;;;;;;;;20.60;99.90;;;;;;5133555;27;20087;-61
2022/09/10 13:06:00;;;;;;;;;;;20.50;99.90;;;;;;5116405;27;19962;-62
2022/09/10 13:08:36;;;;;;;;;;;20.50;99.90;;;;;;5134366;27;20309;-62
2022/09/10 13:11:21;;;;;;;;;;;20.40;99.90;;;;;;5116495;27;19950;-63
2022/09/10 13:13:47;;;;;;;;;;;20.40;99.90;;;;;;5133545;27;19995;-63
2022/09/10 13:16:16;;;;;;;;;;;20.40;99.90;;;;;;5133881;27;19977;-64
2022/09/10 13:18:42;;;;;;;;;;;20.40;99.90;;;;;;5116267;27;20336;-63
2022/09/10 13:21:22;;;;;;;;;;;20.40;99.90;;;;;;5134444;27;19963;-63
2022/09/10 13:23:52;;;;;;;;;;;20.40;99.90;;;;;;5134396;27;19919;-63
2022/09/10 13:26:36;;;;;;;;;;;20.40;99.90;;;;;;5134040;27;20379;-65
2022/09/10 13:29:10;;;;;;;;;;;20.40;99.90;;;;;;5132776;27;19920;-64
2022/09/10 13:31:43;;;;;;;;;;;20.50;99.90;;;;;;5129907;27;19926;-63
2022/09/10 13:34:13;;;;;;;;;;;20.60;99.90;;;;;;5116227;27;19971;-64
2022/09/10 13:37:17;;;;;;;;;;;20.70;99.90;;;;;;5115979;27;19920;-64
2022/09/10 13:40:06;;;;;;;;;;;20.70;99.90;;;;;;5033583;28;20334;-64
2022/09/10 13:42:34;;;;;;;;;;;20.80;99.90;;;;;;5050088;28;20012;-65
2022/09/10 13:45:09;;;;;;;;;;;20.80;99.90;;;;;;5086109;27;19927;-64
2022/09/10 13:47:46;;;;;;;;;;;20.80;99.90;;;;;;5133724;27;19938;-64
2022/09/10 13:50:13;;;;;;;;;;;20.80;99.90;;;;;;5133295;27;19925;-64
2022/09/10 13:52:41;;;;;;;;;;;20.80;99.90;;;;;;5133500;27;19942;-64
2022/09/10 13:55:07;;;;;;;;;;;20.80;99.90;;;;;;5130905;27;20395;-63
2022/09/10 13:57:37;;;;;;;;;;;20.90;99.90;;;;;;5114974;27;19923;-63
2022/09/10 14:00:09;;;;;;;;;;;20.80;99.90;;;;;;5129675;27;19919;-63
2022/09/10 14:02:42;;;;;;;;;;;20.80;99.90;;;;;;5133139;27;19923;-63
2022/09/10 14:05:40;;;;;;;;;;;20.70;99.90;;;;;;5130642;27;19920;-63
2022/09/10 14:08:10;;;;;;;;;;;20.70;99.90;;;;;;5070086;27;19964;-63
2022/09/10 14:10:48;;;;;;;;;;;20.60;99.90;;;;;;5098258;27;19980;-63
2022/09/10 14:13:16;;;;;;;;;;;20.50;99.90;;;;;;5133497;27;19919;-63
2022/09/10 14:15:42;;;;;;;;;;;20.50;99.90;;;;;;5133332;27;19927;-63
2022/09/10 14:18:08;;;;;;;;;;;20.50;99.90;;;;;;5133744;27;20379;-63
2022/09/10 14:20:34;;;;;;;;;;;20.40;99.90;;;;;;5114854;27;19967;-63
2022/09/10 14:23:01;;;;;;;;;;;20.40;99.90;;;;;;5133443;27;20425;-64
2022/09/10 14:25:30;;;;;;;;;;;20.40;99.90;;;;;;5132726;27;20012;-63
2022/09/10 14:28:10;;;;;;;;;;;20.40;99.90;;;;;;5115072;27;19919;-63